Time;durP1;ratioP1;P1;durP2;ratioP2;P2;SDS_P1;SDS_P2;PMS_P1;PMS_P2;Temp;Humidity;BMP_temperature;BMP_pressure;BME280_temperature;BME280_humidity;BME280_pressure;Samples;Min_cycle;Max_cycle;Signal;HPM_P1;HPM_P2
2022/07/30 00:02:04;;;;;;;5.50;5.10;;;37.10;55.50;;;;;;5063185;28;20501;-66
2022/07/30 00:04:36;;;;;;;6.10;5.70;;;37.00;55.90;;;;;;5056061;28;20785;-66
2022/07/30 00:07:07;;;;;;;6.30;5.90;;;36.90;54.60;;;;;;5062411;28;20801;-65
2022/07/30 00:09:38;;;;;;;6.00;5.60;;;36.90;56.00;;;;;;5071853;28;20450;-65
2022/07/30 00:12:09;;;;;;;6.60;6.07;;;36.90;55.50;;;;;;5065927;28;20474;-67
2022/07/30 00:14:40;;;;;;;6.17;5.77;;;36.90;55.30;;;;;;5064953;28;20444;-67
2022/07/30 00:17:11;;;;;;;6.47;6.07;;;36.90;55.70;;;;;;5063057;28;20454;-67
2022/07/30 00:19:46;;;;;;;5.63;5.23;;;36.90;56.40;;;;;;5068009;28;20523;-67
2022/07/30 00:22:16;;;;;;;6.30;5.80;;;36.80;56.50;;;;;;5073735;28;20489;-67
2022/07/30 00:24:47;;;;;;;6.03;5.53;;;36.80;56.90;;;;;;5066100;28;20468;-66
2022/07/30 00:27:19;;;;;;;6.10;5.70;;;36.80;56.00;;;;;;5049657;28;20546;-65
2022/07/30 00:29:50;;;;;;;6.77;6.27;;;36.60;57.10;;;;;;5061689;28;20477;-64
2022/07/30 00:32:20;;;;;;;6.07;5.67;;;36.60;57.10;;;;;;5065354;28;20566;-64
2022/07/30 00:34:53;;;;;;;5.73;5.37;;;36.50;57.00;;;;;;5063994;28;20482;-64
2022/07/30 00:37:24;;;;;;;5.57;5.20;;;36.40;56.90;;;;;;5061766;28;20543;-65
2022/07/30 00:39:54;;;;;;;6.37;5.97;;;36.40;57.00;;;;;;5069601;28;20462;-65
2022/07/30 00:42:37;;;;;;;6.10;5.70;;;36.20;57.80;;;;;;5067668;28;20496;-66
2022/07/30 00:45:08;;;;;;;6.00;5.60;;;36.20;58.30;;;;;;5064553;28;20447;-65
2022/07/30 00:47:40;;;;;;;5.80;5.40;;;36.30;57.70;;;;;;5070300;28;20456;-65
2022/07/30 00:50:14;;;;;;;6.30;5.90;;;36.30;57.60;;;;;;5061482;28;20981;-66
2022/07/30 00:52:45;;;;;;;6.13;5.73;;;36.30;58.00;;;;;;5066353;28;20578;-67
2022/07/30 00:55:17;;;;;;;6.20;5.80;;;36.00;57.20;;;;;;5062592;28;20474;-65
2022/07/30 00:57:48;;;;;;;6.60;6.20;;;35.90;57.90;;;;;;5067385;28;20990;-67
2022/07/30 01:00:20;;;;;;;6.63;6.13;;;35.80;59.00;;;;;;5079739;28;20507;-67
2022/07/30 01:02:51;;;;;;;6.43;6.00;;;35.80;60.30;;;;;;5064010;28;20606;-68
2022/07/30 01:05:23;;;;;;;6.30;5.90;;;35.90;60.40;;;;;;5063534;28;20479;-68
2022/07/30 01:07:54;;;;;;;6.30;5.90;;;35.90;61.40;;;;;;5062270;28;20460;-70
2022/07/30 01:10:25;;;;;;;6.90;6.40;;;35.90;61.70;;;;;;5064097;28;20445;-69
2022/07/30 01:12:57;;;;;;;7.30;6.70;;;35.80;62.00;;;;;;5074637;28;20532;-67
2022/07/30 01:15:28;;;;;;;6.50;6.10;;;35.80;61.60;;;;;;5065714;28;20466;-69
2022/07/30 01:18:02;;;;;;;7.60;7.07;;;35.80;62.50;;;;;;5064118;28;20448;-67
2022/07/30 01:20:38;;;;;;;7.07;6.57;;;35.70;63.30;;;;;;5063004;28;20487;-69
2022/07/30 01:23:15;;;;;;;7.30;6.80;;;35.70;62.80;;;;;;5082799;28;20485;-67
2022/07/30 01:25:59;;;;;;;6.80;6.40;;;35.70;62.90;;;;;;5062464;28;20478;-67
2022/07/30 01:28:33;;;;;;;6.53;6.10;;;35.60;62.90;;;;;;5049170;28;20521;-67
2022/07/30 01:31:06;;;;;;;6.83;6.33;;;35.40;63.30;;;;;;5066427;28;20466;-67
2022/07/30 01:33:40;;;;;;;7.47;6.97;;;35.40;63.10;;;;;;5062046;28;20536;-66
2022/07/30 01:36:14;;;;;;;7.13;6.63;;;35.40;64.30;;;;;;5059436;28;20825;-66
2022/07/30 01:38:47;;;;;;;6.70;6.20;;;35.40;66.10;;;;;;5054012;28;20524;-67
2022/07/30 01:41:20;;;;;;;5.87;5.47;;;35.30;64.50;;;;;;5068211;28;20464;-66
2022/07/30 01:43:53;;;;;;;6.07;5.67;;;35.30;64.80;;;;;;5061838;28;20533;-70
2022/07/30 01:46:26;;;;;;;6.93;6.43;;;35.20;65.80;;;;;;5060631;28;20493;-70
2022/07/30 01:48:58;;;;;;;6.63;6.13;;;35.10;65.00;;;;;;5063369;28;20437;-68
2022/07/30 01:51:30;;;;;;;6.43;6.03;;;35.10;66.20;;;;;;5062379;28;20551;-66
2022/07/30 01:54:08;;;;;;;6.57;6.17;;;35.10;67.10;;;;;;5059771;28;20451;-67
2022/07/30 01:56:43;;;;;;;7.23;6.73;;;35.10;67.20;;;;;;5062972;28;20471;-69
2022/07/30 01:59:16;;;;;;;6.33;5.93;;;35.00;66.60;;;;;;5080270;28;20938;-67
2022/07/30 02:01:47;;;;;;;6.87;6.30;;;34.90;66.00;;;;;;5072044;28;20466;-66
2022/07/30 02:04:18;;;;;;;6.90;6.40;;;34.80;66.30;;;;;;5075275;28;20868;-67
2022/07/30 02:06:58;;;;;;;6.63;6.17;;;34.80;66.30;;;;;;5061319;28;20456;-67
2022/07/30 02:09:36;;;;;;;5.97;5.57;;;34.70;67.40;;;;;;5064399;28;20466;-67
2022/07/30 02:12:30;;;;;;;5.83;5.43;;;34.60;66.50;;;;;;5061020;28;20864;-67
2022/07/30 02:15:17;;;;;;;6.30;5.90;;;34.60;66.20;;;;;;5062481;28;20481;-67
2022/07/30 02:17:55;;;;;;;6.23;5.83;;;34.50;66.60;;;;;;5066217;28;20473;-67
2022/07/30 02:20:30;;;;;;;6.03;5.53;;;34.40;66.90;;;;;;5062567;28;20866;-67
2022/07/30 02:23:07;;;;;;;7.13;6.63;;;34.30;66.60;;;;;;5057815;28;20490;-67
2022/07/30 02:25:42;;;;;;;6.53;6.13;;;34.20;67.50;;;;;;5073204;28;20436;-68
2022/07/30 02:28:17;;;;;;;7.73;7.00;;;34.10;66.90;;;;;;5073653;28;20455;-67
2022/07/30 02:30:52;;;;;;;6.40;5.90;;;34.00;68.30;;;;;;5065639;28;20558;-68
2022/07/30 02:33:27;;;;;;;5.50;5.20;;;33.90;68.50;;;;;;5075450;28;20466;-67
2022/07/30 02:35:59;;;;;;;6.27;5.87;;;33.70;67.80;;;;;;5064181;28;20488;-67
2022/07/30 02:38:32;;;;;;;7.43;6.83;;;33.50;68.70;;;;;;5065739;28;20482;-67
2022/07/30 02:41:05;;;;;;;6.97;6.50;;;33.50;69.00;;;;;;5062145;28;20928;-67
2022/07/30 02:43:42;;;;;;;10.60;9.80;;;33.30;69.70;;;;;;5060303;28;20495;-66
2022/07/30 02:46:15;;;;;;;8.50;7.80;;;33.20;70.20;;;;;;5074715;28;20456;-67
2022/07/30 02:48:47;;;;;;;7.00;6.50;;;33.10;70.60;;;;;;5058733;28;20931;-67
2022/07/30 02:51:20;;;;;;;6.60;6.10;;;33.10;70.90;;;;;;5075745;28;20482;-68
2022/07/30 02:53:52;;;;;;;6.13;5.63;;;33.00;71.10;;;;;;5066315;28;20909;-68
2022/07/30 02:56:24;;;;;;;5.60;5.20;;;33.00;70.10;;;;;;5081714;28;20455;-67
2022/07/30 02:58:58;;;;;;;5.90;5.50;;;33.00;70.40;;;;;;5061337;28;20943;-69
2022/07/30 03:01:30;;;;;;;6.10;5.70;;;33.00;70.70;;;;;;5077119;28;20471;-67
2022/07/30 03:04:01;;;;;;;7.00;6.40;;;32.90;71.90;;;;;;5062732;28;20493;-67
2022/07/30 03:06:33;;;;;;;6.00;5.60;;;32.80;71.50;;;;;;5060456;28;20473;-67
2022/07/30 03:09:06;;;;;;;7.17;6.67;;;32.70;72.30;;;;;;5061684;28;20462;-67
2022/07/30 03:11:37;;;;;;;6.60;6.10;;;32.60;74.40;;;;;;5053797;28;20463;-66
2022/07/30 03:14:10;;;;;;;6.50;6.10;;;32.40;75.40;;;;;;5072543;28;20449;-67
2022/07/30 03:16:43;;;;;;;6.50;6.00;;;32.20;75.70;;;;;;5059042;28;20454;-67
2022/07/30 03:19:16;;;;;;;6.37;5.87;;;32.00;77.10;;;;;;5046643;28;20451;-67
2022/07/30 03:21:48;;;;;;;5.60;5.20;;;31.90;78.40;;;;;;5059009;28;20467;-67
2022/07/30 03:24:20;;;;;;;6.27;5.83;;;31.90;76.40;;;;;;5061571;28;20586;-67
2022/07/30 03:26:53;;;;;;;6.57;6.07;;;31.90;76.10;;;;;;5060066;28;20475;-67
2022/07/30 03:29:27;;;;;;;5.67;5.27;;;32.00;75.50;;;;;;5063849;28;20467;-68
2022/07/30 03:31:58;;;;;;;5.90;5.40;;;32.00;75.70;;;;;;5058661;28;20455;-67
2022/07/30 03:34:29;;;;;;;6.23;5.73;;;31.90;75.80;;;;;;5057735;28;20489;-67
2022/07/30 03:37:05;;;;;;;6.00;5.53;;;31.90;75.30;;;;;;5056459;28;20473;-66
2022/07/30 03:39:37;;;;;;;6.00;5.60;;;31.90;76.70;;;;;;5056907;28;20468;-68
2022/07/30 03:42:09;;;;;;;6.37;5.87;;;31.80;77.10;;;;;;5064084;28;20474;-67
2022/07/30 03:44:44;;;;;;;6.40;6.00;;;31.60;77.90;;;;;;5065646;28;20556;-68
2022/07/30 03:47:16;;;;;;;6.10;5.70;;;31.50;78.20;;;;;;5064266;28;20453;-67
2022/07/30 03:49:47;;;;;;;5.80;5.30;;;31.50;78.60;;;;;;5069010;28;20478;-67
2022/07/30 03:52:19;;;;;;;6.60;6.20;;;31.40;79.50;;;;;;5064276;28;20463;-67
2022/07/30 03:54:50;;;;;;;6.10;5.60;;;31.10;80.40;;;;;;5064307;28;20565;-65
2022/07/30 03:57:20;;;;;;;5.53;5.13;;;31.10;81.20;;;;;;5066357;28;20482;-66
2022/07/30 03:59:53;;;;;;;6.43;5.93;;;31.00;81.30;;;;;;5064742;28;20453;-66
2022/07/30 04:02:26;;;;;;;5.97;5.57;;;31.10;81.20;;;;;;5063019;28;20462;-66
2022/07/30 04:04:57;;;;;;;5.50;5.10;;;31.00;81.40;;;;;;5064247;28;20501;-67
2022/07/30 04:07:28;;;;;;;4.93;4.63;;;31.00;81.70;;;;;;5070490;28;20470;-67
2022/07/30 04:09:58;;;;;;;5.43;5.03;;;30.90;81.70;;;;;;5078139;28;20461;-66
2022/07/30 04:12:29;;;;;;;5.50;5.10;;;30.90;82.60;;;;;;5064890;28;20464;-66
2022/07/30 04:15:02;;;;;;;5.23;4.83;;;30.70;83.50;;;;;;5068429;28;20467;-66
2022/07/30 04:17:58;;;;;;;5.60;5.20;;;30.50;84.60;;;;;;5055719;28;20541;-67
2022/07/30 04:20:33;;;;;;;4.70;4.40;;;30.30;86.80;;;;;;5061752;28;20802;-67
2022/07/30 04:23:04;;;;;;;5.57;5.17;;;30.10;88.10;;;;;;5069615;28;20891;-66
2022/07/30 04:25:35;;;;;;;6.50;6.00;;;30.00;88.20;;;;;;5065120;28;20464;-66
2022/07/30 04:28:07;;;;;;;6.03;5.53;;;29.90;88.30;;;;;;5071479;28;20474;-67
2022/07/30 04:30:41;;;;;;;6.60;6.10;;;29.80;90.00;;;;;;5061665;28;20459;-67
2022/07/30 04:33:12;;;;;;;5.90;5.50;;;29.60;91.30;;;;;;5064576;28;20445;-66
2022/07/30 04:35:43;;;;;;;5.57;5.13;;;29.40;91.30;;;;;;5076579;28;20446;-64
2022/07/30 04:38:21;;;;;;;5.63;5.23;;;29.20;92.30;;;;;;5063757;28;20451;-65
2022/07/30 04:40:51;;;;;;;5.53;5.13;;;29.10;92.80;;;;;;5068262;28;20804;-65
2022/07/30 04:43:22;;;;;;;5.30;4.80;;;29.20;92.30;;;;;;5064239;28;20483;-65
2022/07/30 04:45:54;;;;;;;5.73;5.33;;;29.30;92.10;;;;;;5064847;28;20453;-66
2022/07/30 04:48:27;;;;;;;4.90;4.50;;;29.20;92.30;;;;;;5077216;28;20443;-65
2022/07/30 04:51:01;;;;;;;6.00;5.50;;;29.30;93.40;;;;;;5060410;28;20489;-66
2022/07/30 04:53:33;;;;;;;5.93;5.50;;;29.30;93.60;;;;;;5068085;28;20952;-66
2022/07/30 04:56:06;;;;;;;5.30;4.90;;;29.00;93.70;;;;;;5061294;28;20466;-66
2022/07/30 04:58:40;;;;;;;5.40;5.03;;;28.90;94.90;;;;;;5063523;28;20506;-66
2022/07/30 05:01:17;;;;;;;5.80;5.40;;;28.70;96.60;;;;;;5067383;28;21797;-66
2022/07/30 05:03:48;;;;;;;5.30;5.00;;;28.50;97.90;;;;;;5064529;28;20515;-65
2022/07/30 05:06:20;;;;;;;5.40;5.00;;;28.40;98.20;;;;;;5063949;28;20773;-65
2022/07/30 05:08:51;;;;;;;4.67;4.37;;;28.30;99.40;;;;;;5063620;28;20836;-65
2022/07/30 05:11:21;;;;;;;5.20;4.80;;;28.20;99.90;;;;;;5068568;28;20480;-65
2022/07/30 05:13:53;;;;;;;5.03;4.63;;;28.10;99.90;;;;;;5059858;28;20493;-65
2022/07/30 05:16:25;;;;;;;5.03;4.70;;;28.10;99.90;;;;;;5063163;28;20451;-66
2022/07/30 05:18:57;;;;;;;5.27;4.87;;;28.00;99.90;;;;;;5062266;28;20460;-65
2022/07/30 05:21:27;;;;;;;5.77;5.33;;;27.90;99.90;;;;;;5067942;28;20452;-66
2022/07/30 05:23:58;;;;;;;5.30;4.90;;;27.80;99.90;;;;;;5065171;28;20489;-65
2022/07/30 05:26:29;;;;;;;5.20;4.80;;;27.70;99.90;;;;;;5056407;28;20476;-66
2022/07/30 05:29:00;;;;;;;5.57;5.17;;;27.60;99.90;;;;;;5062868;28;20458;-66
2022/07/30 05:31:37;;;;;;;5.20;4.80;;;27.60;99.90;;;;;;5058627;28;20470;-66
2022/07/30 05:34:08;;;;;;;5.13;4.67;;;27.60;99.90;;;;;;5059195;28;20579;-67
2022/07/30 05:36:39;;;;;;;5.40;4.90;;;27.70;99.90;;;;;;5062754;28;20456;-66
2022/07/30 05:39:09;;;;;;;5.47;5.07;;;27.70;99.90;;;;;;5061941;28;20470;-65
2022/07/30 05:41:40;;;;;;;5.10;4.70;;;27.60;99.90;;;;;;5061367;28;20448;-65
2022/07/30 05:44:11;;;;;;;5.50;5.10;;;27.60;99.90;;;;;;5061187;28;20496;-65
2022/07/30 05:46:43;;;;;;;4.70;4.30;;;27.50;99.90;;;;;;5059486;28;20479;-66
2022/07/30 05:49:14;;;;;;;4.93;4.53;;;27.40;99.90;;;;;;5052936;28;20463;-66
2022/07/30 05:51:45;;;;;;;5.27;4.87;;;27.30;99.90;;;;;;5062502;28;20920;-66
2022/07/30 05:54:19;;;;;;;5.53;5.07;;;27.20;99.90;;;;;;5057540;28;20520;-66
2022/07/30 05:56:53;;;;;;;4.10;3.80;;;27.10;99.90;;;;;;5058235;28;20457;-67
2022/07/30 05:59:24;;;;;;;4.90;4.50;;;27.00;99.90;;;;;;5076633;28;20458;-67
2022/07/30 06:01:56;;;;;;;4.90;4.60;;;27.00;99.90;;;;;;5081217;28;20462;-67
2022/07/30 06:04:27;;;;;;;4.80;4.40;;;26.90;99.90;;;;;;5075628;28;20490;-66
2022/07/30 06:06:58;;;;;;;5.00;4.60;;;26.80;99.90;;;;;;5060256;28;20474;-66
2022/07/30 06:09:29;;;;;;;5.60;5.20;;;26.70;99.90;;;;;;5059723;28;20478;-66
2022/07/30 06:12:06;;;;;;;5.10;4.70;;;26.70;99.90;;;;;;5078470;28;20461;-66
2022/07/30 06:14:37;;;;;;;4.80;4.50;;;26.60;99.90;;;;;;5067158;28;20474;-66
2022/07/30 06:17:09;;;;;;;5.60;5.10;;;26.60;99.90;;;;;;5061608;28;20467;-66
2022/07/30 06:19:40;;;;;;;4.80;4.50;;;26.50;99.90;;;;;;5061849;28;20459;-66
2022/07/30 06:22:11;;;;;;;4.90;4.50;;;26.40;99.90;;;;;;5063126;28;20472;-66
2022/07/30 06:24:41;;;;;;;4.63;4.30;;;26.30;99.90;;;;;;5076771;28;20857;-65
2022/07/30 06:27:12;;;;;;;4.63;4.30;;;26.30;99.90;;;;;;5065850;28;20473;-65
2022/07/30 06:29:43;;;;;;;4.87;4.47;;;26.30;99.90;;;;;;5061040;28;20463;-66
2022/07/30 06:32:16;;;;;;;5.00;4.60;;;26.30;99.90;;;;;;5059716;28;20450;-65
2022/07/30 06:34:47;;;;;;;3.97;3.67;;;26.20;99.90;;;;;;5060199;28;20551;-65
2022/07/30 06:37:26;;;;;;;4.97;4.57;;;26.20;99.90;;;;;;5057176;28;20491;-65
2022/07/30 06:40:17;;;;;;;4.40;4.10;;;26.10;99.90;;;;;;5060074;28;20463;-65
2022/07/30 06:42:47;;;;;;;4.37;3.97;;;26.10;99.90;;;;;;5059430;28;20462;-65
2022/07/30 06:45:18;;;;;;;4.67;4.37;;;26.00;99.90;;;;;;5059119;28;20505;-66
2022/07/30 06:47:51;;;;;;;4.50;4.20;;;26.00;99.90;;;;;;5060084;28;20500;-65
2022/07/30 06:50:21;;;;;;;4.50;4.10;;;26.00;99.90;;;;;;5079029;28;20457;-65
2022/07/30 06:52:52;;;;;;;4.80;4.40;;;25.90;99.90;;;;;;5061295;28;20466;-65
2022/07/30 06:55:24;;;;;;;4.60;4.20;;;25.90;99.90;;;;;;5060983;28;20553;-65
2022/07/30 06:57:55;;;;;;;4.87;4.47;;;25.80;99.90;;;;;;5063281;28;20474;-65
2022/07/30 07:00:25;;;;;;;4.90;4.50;;;25.80;99.90;;;;;;5061041;28;20525;-65
2022/07/30 07:02:58;;;;;;;4.93;4.63;;;25.80;99.90;;;;;;5059923;28;20454;-65
2022/07/30 07:05:29;;;;;;;5.70;5.20;;;25.70;99.90;;;;;;5060875;28;20498;-66
2022/07/30 07:08:00;;;;;;;5.47;4.97;;;25.70;99.90;;;;;;5057708;28;20461;-65
2022/07/30 07:10:31;;;;;;;5.40;4.90;;;25.60;99.90;;;;;;5052501;28;20466;-66
2022/07/30 07:13:01;;;;;;;5.20;4.80;;;25.50;99.90;;;;;;5070649;28;20932;-65
2022/07/30 07:15:36;;;;;;;4.73;4.43;;;25.40;99.90;;;;;;5066117;28;20464;-65
2022/07/30 07:18:08;;;;;;;5.20;4.80;;;25.40;99.90;;;;;;5068633;28;20460;-67
2022/07/30 07:20:39;;;;;;;5.47;4.97;;;25.40;99.90;;;;;;5064063;28;20461;-65
2022/07/30 07:23:10;;;;;;;5.47;4.97;;;25.30;99.90;;;;;;5063963;28;20470;-65
2022/07/30 07:25:43;;;;;;;4.80;4.20;;;25.20;99.90;;;;;;5064277;28;20549;-65
2022/07/30 07:28:13;;;;;;;5.80;5.20;;;25.10;99.90;;;;;;5065035;28;20473;-65
2022/07/30 07:30:44;;;;;;;5.07;4.67;;;25.20;99.90;;;;;;5062521;28;20453;-66
2022/07/30 07:33:16;;;;;;;6.00;5.43;;;25.10;99.90;;;;;;5066218;28;20441;-65
2022/07/30 07:35:47;;;;;;;5.20;4.80;;;25.10;99.90;;;;;;5061418;28;20465;-65
2022/07/30 07:38:19;;;;;;;4.33;3.93;;;25.00;99.90;;;;;;5064140;28;20467;-65
2022/07/30 07:40:50;;;;;;;4.53;4.13;;;25.00;99.90;;;;;;5064633;28;20480;-65
2022/07/30 07:43:21;;;;;;;4.60;4.20;;;25.00;99.90;;;;;;5068199;28;20556;-65
2022/07/30 07:45:51;;;;;;;5.30;4.90;;;24.90;99.90;;;;;;5065043;28;20518;-65
2022/07/30 07:48:24;;;;;;;5.03;4.53;;;24.90;99.90;;;;;;5065003;28;20460;-65
2022/07/30 07:50:55;;;;;;;4.50;4.20;;;24.90;99.90;;;;;;5063174;28;20473;-65
2022/07/30 07:53:29;;;;;;;5.57;5.20;;;24.80;99.90;;;;;;5073552;28;20457;-65
2022/07/30 07:56:00;;;;;;;5.03;4.63;;;24.70;99.90;;;;;;5064707;28;20475;-65
2022/07/30 07:58:33;;;;;;;5.07;4.67;;;24.70;99.90;;;;;;5070460;28;20592;-65
2022/07/30 08:01:07;;;;;;;5.40;4.90;;;24.60;99.90;;;;;;5064402;28;20464;-66
2022/07/30 08:03:40;;;;;;;5.40;5.00;;;24.60;99.90;;;;;;5066003;28;20460;-66
2022/07/30 08:06:10;;;;;;;5.60;5.10;;;24.50;99.90;;;;;;5063137;28;20511;-66
2022/07/30 08:08:44;;;;;;;4.90;4.50;;;24.50;99.90;;;;;;5075124;28;20463;-66
2022/07/30 08:11:15;;;;;;;4.93;4.53;;;24.50;99.90;;;;;;5068656;28;20884;-64
2022/07/30 08:13:46;;;;;;;5.10;4.70;;;24.50;99.90;;;;;;5070240;28;20481;-64
2022/07/30 08:16:22;;;;;;;5.00;4.50;;;24.40;99.90;;;;;;5061563;28;20482;-64
2022/07/30 08:18:54;;;;;;;4.70;4.30;;;24.40;99.90;;;;;;5064133;28;20545;-64
2022/07/30 08:21:25;;;;;;;4.77;4.47;;;24.30;99.90;;;;;;5062394;28;20658;-64
2022/07/30 08:23:56;;;;;;;4.43;4.13;;;24.30;99.90;;;;;;5064202;28;20898;-64
2022/07/30 08:26:27;;;;;;;4.50;4.20;;;24.20;99.90;;;;;;5050811;28;20506;-65
2022/07/30 08:28:59;;;;;;;4.37;4.07;;;24.20;99.90;;;;;;5068334;28;20568;-64
2022/07/30 08:31:30;;;;;;;4.13;3.83;;;24.20;99.90;;;;;;5060578;28;20525;-64
2022/07/30 08:34:02;;;;;;;4.50;4.10;;;24.20;99.90;;;;;;5064156;28;20539;-64
2022/07/30 08:36:33;;;;;;;5.00;4.60;;;24.20;99.90;;;;;;5062539;28;20460;-64
2022/07/30 08:39:04;;;;;;;4.53;4.13;;;24.10;99.90;;;;;;5062954;28;20500;-64
2022/07/30 08:41:37;;;;;;;4.60;4.30;;;24.00;99.90;;;;;;5062577;28;20498;-64
2022/07/30 08:44:12;;;;;;;3.93;3.63;;;24.00;99.90;;;;;;5067330;28;20453;-64
2022/07/30 08:46:44;;;;;;;3.90;3.60;;;24.00;99.90;;;;;;5049164;28;20490;-64
2022/07/30 08:49:18;;;;;;;4.33;3.93;;;24.00;99.90;;;;;;5068273;28;20789;-65
2022/07/30 08:51:55;;;;;;;3.97;3.67;;;24.00;99.90;;;;;;5073393;28;20463;-64
2022/07/30 08:54:26;;;;;;;3.87;3.57;;;23.90;99.90;;;;;;5067501;28;20463;-65
2022/07/30 08:56:58;;;;;;;4.10;3.80;;;23.90;99.90;;;;;;5070373;28;20506;-65
2022/07/30 08:59:30;;;;;;;3.73;3.43;;;23.90;99.90;;;;;;5063669;28;20833;-64
2022/07/30 09:02:21;;;;;;;3.87;3.57;;;23.80;99.90;;;;;;5066760;28;20616;-64
2022/07/30 09:04:58;;;;;;;4.37;3.87;;;23.90;99.90;;;;;;5063013;28;20462;-65
2022/07/30 09:07:29;;;;;;;4.20;3.90;;;23.90;99.90;;;;;;5061252;28;20492;-65
2022/07/30 09:10:01;;;;;;;4.03;3.73;;;24.00;99.90;;;;;;5062060;28;20457;-64
2022/07/30 09:12:40;;;;;;;3.27;3.07;;;23.90;99.90;;;;;;5068301;28;20476;-65
2022/07/30 09:15:13;;;;;;;3.70;3.40;;;23.80;99.90;;;;;;5063604;28;21148;-65
2022/07/30 09:17:52;;;;;;;3.33;3.13;;;23.80;99.90;;;;;;5061223;28;20469;-65
2022/07/30 09:20:27;;;;;;;3.93;3.63;;;23.70;99.90;;;;;;5064689;28;20799;-66
2022/07/30 09:22:59;;;;;;;4.43;4.13;;;23.70;99.90;;;;;;5067067;28;20464;-64
2022/07/30 09:25:38;;;;;;;4.80;4.30;;;23.70;99.90;;;;;;5054169;28;20467;-65
2022/07/30 09:28:10;;;;;;;4.53;4.13;;;23.60;99.90;;;;;;5063518;28;20470;-65
2022/07/30 09:30:52;;;;;;;4.20;3.90;;;23.50;99.90;;;;;;5058025;28;20528;-65
2022/07/30 09:33:34;;;;;;;4.23;3.93;;;23.50;99.90;;;;;;5053046;28;20460;-65
2022/07/30 09:36:08;;;;;;;4.10;3.80;;;23.50;99.90;;;;;;5062613;28;20464;-66
2022/07/30 09:38:48;;;;;;;4.20;3.90;;;23.50;99.90;;;;;;5055074;28;20478;-66
2022/07/30 09:41:21;;;;;;;4.00;3.70;;;23.50;99.90;;;;;;5073747;28;20941;-66
2022/07/30 09:44:08;;;;;;;3.90;3.60;;;23.40;99.90;;;;;;5061718;28;20758;-66
2022/07/30 09:46:46;;;;;;;3.90;3.60;;;23.40;99.90;;;;;;5065715;28;20495;-65
2022/07/30 09:49:18;;;;;;;4.50;3.80;;;23.40;99.90;;;;;;5065235;28;20558;-65
2022/07/30 09:51:52;;;;;;;3.90;3.60;;;23.40;99.90;;;;;;5076617;28;20455;-66
2022/07/30 09:54:49;;;;;;;4.50;4.20;;;23.30;99.90;;;;;;5058410;28;20462;-66
2022/07/30 09:57:21;;;;;;;4.53;4.03;;;23.30;99.90;;;;;;5055271;28;20523;-65
2022/07/30 09:59:57;;;;;;;5.87;4.50;;;23.30;99.90;;;;;;5060927;28;20465;-66
2022/07/30 10:02:33;;;;;;;4.97;4.57;;;23.20;99.90;;;;;;5073983;28;20451;-66
2022/07/30 10:05:12;;;;;;;4.47;4.10;;;23.30;99.90;;;;;;5062830;28;20447;-65
2022/07/30 10:07:53;;;;;;;4.70;4.40;;;23.20;99.90;;;;;;5060853;28;20522;-65
2022/07/30 10:10:26;;;;;;;4.50;4.10;;;23.20;99.90;;;;;;5061860;28;20468;-66
2022/07/30 10:13:01;;;;;;;5.57;4.50;;;23.10;99.90;;;;;;5060150;28;20483;-66
2022/07/30 10:15:35;;;;;;;4.23;3.83;;;23.10;99.90;;;;;;5064340;28;20499;-66
2022/07/30 10:18:08;;;;;;;5.00;4.60;;;23.10;99.90;;;;;;5058470;28;20484;-67
2022/07/30 10:20:39;;;;;;;4.07;3.77;;;23.10;99.90;;;;;;5080713;28;20440;-66
2022/07/30 10:23:12;;;;;;;4.03;3.73;;;23.00;99.90;;;;;;5071333;28;20479;-66
2022/07/30 10:25:45;;;;;;;4.13;3.73;;;23.00;99.90;;;;;;5060659;28;20498;-66
2022/07/30 10:28:24;;;;;;;4.53;4.13;;;22.90;99.90;;;;;;5058851;28;20568;-65
2022/07/30 10:30:56;;;;;;;4.70;4.30;;;22.90;99.90;;;;;;5061464;28;20556;-65
2022/07/30 10:33:31;;;;;;;4.00;3.70;;;22.80;99.90;;;;;;5056744;28;20452;-63
2022/07/30 10:36:12;;;;;;;4.00;3.70;;;22.80;99.90;;;;;;5060262;28;20460;-66
2022/07/30 10:38:46;;;;;;;3.70;3.40;;;22.90;99.90;;;;;;5063710;28;20535;-62
2022/07/30 10:41:34;;;;;;;3.80;3.50;;;23.00;99.90;;;;;;5065389;28;20474;-63
2022/07/30 10:44:46;;;;;;;4.23;3.93;;;23.00;99.90;;;;;;5075658;28;20519;-63
2022/07/30 10:47:19;;;;;;;3.20;3.00;;;22.90;99.90;;;;;;5071354;28;20827;-63
2022/07/30 10:50:11;;;;;;;4.10;3.80;;;22.80;99.90;;;;;;5059799;28;21196;-63
2022/07/30 10:52:50;;;;;;;4.47;4.00;;;22.80;99.90;;;;;;5059764;28;20457;-63
2022/07/30 10:55:25;;;;;;;3.30;3.10;;;22.70;99.90;;;;;;5059139;28;20820;-62
2022/07/30 10:58:10;;;;;;;4.03;3.73;;;22.70;99.90;;;;;;5059609;28;20483;-63
2022/07/30 11:01:01;;;;;;;3.30;3.00;;;22.60;99.90;;;;;;5062292;28;20491;-63
2022/07/30 11:03:32;;;;;;;3.93;3.53;;;22.60;99.90;;;;;;5081036;28;20454;-62
2022/07/30 11:06:29;;;;;;;4.37;3.97;;;22.50;99.90;;;;;;5066388;28;20432;-64
2022/07/30 11:09:00;;;;;;;3.93;3.53;;;22.50;99.90;;;;;;5067918;28;20455;-63
2022/07/30 11:11:50;;;;;;;3.57;3.30;;;22.50;99.90;;;;;;5062064;28;20458;-64
2022/07/30 11:15:01;;;;;;;4.10;3.70;;;22.40;99.90;;;;;;5080341;28;20942;-64
2022/07/30 11:18:01;;;;;;;3.70;3.40;;;22.40;99.90;;;;;;5072459;28;20460;-64
2022/07/30 11:20:33;;;;;;;4.33;3.93;;;22.40;99.90;;;;;;5062991;28;20507;-64
2022/07/30 11:23:12;;;;;;;4.00;3.70;;;22.30;99.90;;;;;;5075069;28;20468;-64
2022/07/30 11:25:44;;;;;;;3.90;3.30;;;22.30;99.90;;;;;;5061428;28;20444;-64
2022/07/30 11:28:43;;;;;;;3.90;3.40;;;22.20;99.90;;;;;;5078830;28;20515;-66
2022/07/30 11:31:32;;;;;;;3.67;3.37;;;22.20;99.90;;;;;;5074076;28;20447;-66
2022/07/30 11:34:29;;;;;;;2.97;2.77;;;22.20;99.90;;;;;;5078216;28;20459;-66
2022/07/30 11:37:10;;;;;;;3.40;3.10;;;22.20;99.90;;;;;;5080957;28;20443;-65
2022/07/30 11:40:11;;;;;;;3.27;3.03;;;22.10;99.90;;;;;;5071325;28;20486;-65
2022/07/30 11:42:43;;;;;;;3.10;2.90;;;22.10;99.90;;;;;;5064445;28;20476;-65
2022/07/30 11:45:33;;;;;;;2.90;2.70;;;22.10;99.90;;;;;;5073429;28;20444;-65
2022/07/30 11:48:11;;;;;;;3.97;3.47;;;22.00;99.90;;;;;;5061679;28;20490;-65
2022/07/30 11:50:43;;;;;;;4.57;3.67;;;21.90;99.90;;;;;;5080822;28;20447;-65
2022/07/30 11:53:18;;;;;;;3.27;2.97;;;21.90;99.90;;;;;;5074107;28;20426;-65
2022/07/30 11:55:54;;;;;;;3.70;3.37;;;21.80;99.90;;;;;;5052583;28;20463;-66
2022/07/30 11:58:27;;;;;;;2.80;2.60;;;21.70;99.90;;;;;;5075138;28;20486;-65
2022/07/30 12:01:01;;;;;;;2.83;2.60;;;21.60;99.90;;;;;;5081318;28;20456;-65
2022/07/30 12:03:42;;;;;;;3.17;2.87;;;21.60;99.90;;;;;;5081171;28;20783;-64
2022/07/30 12:06:16;;;;;;;3.20;3.00;;;21.60;99.90;;;;;;5084006;28;20446;-65
2022/07/30 12:08:49;;;;;;;3.90;3.50;;;21.60;99.90;;;;;;5048949;28;20491;-65
2022/07/30 12:11:25;;;;;;;3.33;3.13;;;21.50;99.90;;;;;;5064936;28;20514;-64
2022/07/30 12:14:00;;;;;;;4.07;3.70;;;21.40;99.90;;;;;;5078657;28;20439;-65
2022/07/30 12:16:34;;;;;;;3.30;2.80;;;21.40;99.90;;;;;;5084619;28;20447;-64
2022/07/30 12:19:06;;;;;;;3.13;2.93;;;21.40;99.90;;;;;;5050528;28;20448;-64
2022/07/30 12:21:38;;;;;;;4.90;3.07;;;21.40;99.90;;;;;;5075417;28;20455;-64
2022/07/30 12:24:10;;;;;;;3.77;3.47;;;21.40;99.90;;;;;;5069480;28;20930;-64
2022/07/30 12:26:41;;;;;;;3.90;3.00;;;21.40;99.90;;;;;;5083899;28;20422;-64
2022/07/30 12:29:13;;;;;;;3.40;3.10;;;21.40;99.90;;;;;;5084143;28;20457;-65
2022/07/30 12:31:46;;;;;;;4.57;4.17;;;21.40;99.90;;;;;;5078634;28;20449;-64
2022/07/30 12:34:27;;;;;;;3.30;3.03;;;21.30;99.90;;;;;;5072281;28;20426;-64
2022/07/30 12:37:09;;;;;;;3.37;3.07;;;21.30;99.90;;;;;;5062793;28;20578;-64
2022/07/30 12:39:39;;;;;;;4.30;3.90;;;21.30;99.90;;;;;;5075850;28;20499;-64
2022/07/30 12:42:19;;;;;;;3.73;3.33;;;21.20;99.90;;;;;;5084013;28;20466;-65
2022/07/30 12:44:50;;;;;;;3.80;3.50;;;21.20;99.90;;;;;;5049089;28;20452;-64
2022/07/30 12:47:24;;;;;;;3.70;3.40;;;21.30;99.90;;;;;;5064254;28;20591;-65
2022/07/30 12:49:56;;;;;;;3.80;3.50;;;21.20;99.90;;;;;;5069981;28;20528;-64
2022/07/30 12:52:30;;;;;;;3.10;2.90;;;21.20;99.90;;;;;;5064243;28;20422;-64
2022/07/30 12:55:06;;;;;;;3.67;3.37;;;21.20;99.90;;;;;;5083921;28;20501;-64
2022/07/30 12:57:59;;;;;;;4.07;3.67;;;21.10;99.90;;;;;;5072473;28;20466;-64
2022/07/30 13:00:50;;;;;;;3.63;3.33;;;21.10;99.90;;;;;;5063435;28;20463;-65
2022/07/30 13:03:24;;;;;;;3.50;3.17;;;21.00;99.90;;;;;;5072465;28;20531;-65
2022/07/30 13:05:56;;;;;;;3.87;3.57;;;21.10;99.90;;;;;;5065479;28;20456;-65
2022/07/30 13:08:49;;;;;;;3.33;3.13;;;21.10;99.90;;;;;;5064430;28;20839;-64
2022/07/30 13:11:22;;;;;;;3.60;3.30;;;21.10;99.90;;;;;;5063704;28;20469;-65
2022/07/30 13:13:54;;;;;;;5.17;4.10;;;21.10;99.90;;;;;;5064817;28;20453;-64
2022/07/30 13:16:24;;;;;;;4.57;4.17;;;21.10;99.90;;;;;;5075096;28;20447;-64
2022/07/30 13:18:57;;;;;;;3.73;3.30;;;21.00;99.90;;;;;;5078794;28;20485;-65
2022/07/30 13:21:28;;;;;;;3.73;3.43;;;20.90;99.90;;;;;;5062270;28;20423;-65
2022/07/30 13:23:58;;;;;;;3.80;3.47;;;20.90;99.90;;;;;;5073300;28;20448;-65
2022/07/30 13:26:29;;;;;;;3.90;3.60;;;21.00;99.90;;;;;;5083500;28;20462;-65